map of HBE home
Great Circle Mapper logo
HBE - Airport
Location
City:  Alexandria, Egypt
Name:Borg el Arab
ICAO / IATA:HEBA / HBE

Details
Type:Airport (Aerodrome, Airfield)
Use:Public/Civil, International (customs port of entry)
Latitude:3055'04"N (30.917669)
Longitude:2941'47"E (29.696408)
Datum:WGS 1984
Elevation:177 ft (54 m)
Variation:4.1E (WMM2015 magnetic declination)
Runways:3
Longest:11156 × 148 ft (3400 × 45 m), paved

Time
Time Zone:UTC+2 (DST+3)
Local Time:

Weather
METAR:HEBA 181200Z 24007KT 9999 FEW020 BKN100 19/08 Q1017 NOSIG
TAF:HEBA 181100Z 1812/1918 31007KT 9999 FEW020
TEMPO 1903/1906 VRB03KT 6000 NSC

Related Locations
Nearby:
Farthest:NTAV: 11921 mi / 19185 km
Raivavae, Tubuai Islands, Austral Islands, PF

Find:

   beyond  
but within

Other Information
Maps:
NOTAMs:
Links:
Sources:

  
flag of Egypt   

Sectional Chart

Flight Planning
at skyvector.com

Satellite Image

Google Maps Satellite View

 

Copyright © 2004-2014 Karl L. Swartz. All rights reserved.
The Great Circle Mapper name and logo are trademarks of the Great Circle Mapper.
All other trademarks mentioned herein belong to their respective owners.
Please see credits for attibutions and further copyright information.

  Follow gcmap on Facebook Follow gcmap on Twitter

hCard Microformat

Geo Microformat